Terminal Aerodrome Forecast
Issued by NWS

Home | Current Version | Previous Version | Text Only | Print | Product List | Glossary On
Versions: 1 2 3 4 5 6 7 8 9 10 11 12 13 14 15 16 17 18 19
000
FTUS43 KMPX 190500
TAFRNH
TAF
KRNH 190538Z 1906/2006 11010KT P6SM BKN150
     FM191100 14014G23KT P6SM VCSH SCT050 BKN100
     FM191400 17019G26KT P6SM BKN060 BKN100
     FM191800 19013G20KT P6SM VCSH SCT035 OVC060 PROB30 1919/1923
      5SM -SHRA OVC040
     FM192300 23008KT P6SM SCT060 BKN100=

USA.gov is the U.S. government's official web portal to all federal, state and local government web resources and services.